Airfield :
LOGIN :

Register | Disclaimer

   EN    FR    IT 

 










Legend :    VFR   Marginal VFR   IFR   Intensive IFR   Very Intensive IFR
Visi :
Ceiling :
>= 8 km
>= 3000ft
5 to 8 km
1000 to 3000 ft
1500m to 5 km
500 to 1000 ft
800 to 1500m
200 to 500 ft
< 800m
< 200 ft
Symbols :   Thunderstorms  Fog  Heavy snow  Heavy precipitations  Wind > 20 kt
SIGMETs :     Misc.  Thunderstorms  Icing  Turbulence  Mountain Waves  Volcanic Ashes







- Airport Elevation : 1302 ft
- IATA code : GNB
- Download approach charts


LFLS - Grenoble / St. Geoirs

CURRENT METAR :
  • 171400Z AUTO 34006KT 300V020 CAVOK 22/09 Q1015 NOSIG

EXPIRED METARs :
  • 171330Z AUTO 33005KT 280V020 CAVOK 22/09 Q1016 NOSIG
  • 171300Z AUTO 32004KT 260V030 CAVOK 22/09 Q1016 NOSIG
  • 171230Z AUTO VRB03KT CAVOK 22/09 Q1016 NOSIG
  • 171200Z AUTO 03004KT 340V080 CAVOK 21/08 Q1017 NOSIG
  • 171130Z AUTO VRB03KT CAVOK 21/09 Q1017 NOSIG

TAF TAF LFLS
Valid from the 17 at 15:00 until the 18 at 15:00 UTC


171400Z 1715/1815 34005KT CAVOK
BECMG 1717/1719 VRB03KT
PROB30
TEMPO 1804/1807 2000 BCFG
BECMG 1810/1812 02005KT
ATIS : +33 4 76 65 55 89
No reported NOTAMs for that airfield.



MET'MAP, your aeronautical weather chart ! - Copyright ORBIFLY December 2007 - Disclaimer

ORBIFLY MET'MAP TEAM :

Programming & Development : Alexandra Zaïnal
Concept & Development : Baudouin d'Aumeries
Co-Development & Prog : Marc-Olivier Méhu
Technical & hardware support : Manuel Goepfert

Contact : metmap@orbifly.com




SOURCES & CREDITS :

   NOAA